Kelham Island, United Kingdom
Current Conditions -  °F | °C
As of 7:20 AM on Thursday 18 Dec 2014 (Local Time) from EGCN Reporting Station
Broken Clouds Broken Clouds  
Wind Chill: 54°   Ceiling: 2000
Heat Index: 54°   Visibility: 6mi
Dew Point: 52°   Wind: 12mph
Humidity: 94%   Direction: 180°S
Pressure: 29.62"   Gusts: NA
Location:  53.38°N, 1.47°W
Report Text: EGCN 180720Z 18010KT 9999 SCT015 BKN020 12/11 Q1003
Loading
Personal Weather Stations






























Interactive Weather Map New forecast layout! Learn more

10-Day Weather Forecast

Advertisements
Track Severe Weather on mobile